Time;durP1;ratioP1;P1;durP2;ratioP2;P2;SDS_P1;SDS_P2;PMS_P1;PMS_P2;Temp;Humidity;BMP_temperature;BMP_pressure;BME280_temperature;BME280_humidity;BME280_pressure;Samples;Min_cycle;Max_cycle;Signal;HPM_P1;HPM_P2
2023/10/20 00:00:19;;;;;;;3.20;0.90;;;19.40;98.30;;;;;;7382085;19;20010;-81
2023/10/20 00:02:48;;;;;;;7.88;0.85;;;19.40;98.50;;;;;;7382783;19;20278;-81
2023/10/20 00:05:18;;;;;;;4.55;0.57;;;19.30;98.40;;;;;;7402268;19;20031;-79
2023/10/20 00:07:50;;;;;;;2.42;0.70;;;19.30;98.60;;;;;;7382466;19;20571;-80
2023/10/20 00:10:19;;;;;;;2.17;0.50;;;19.30;98.80;;;;;;7381679;19;20013;-80
2023/10/20 00:12:52;;;;;;;3.15;0.60;;;19.40;98.70;;;;;;7380995;19;20099;-80
2023/10/20 00:15:23;;;;;;;1.25;0.50;;;19.30;99.00;;;;;;7382680;19;20023;-80
2023/10/20 00:17:54;;;;;;;2.63;0.60;;;19.30;98.60;;;;;;7383100;19;20000;-80
2023/10/20 00:24:08;;;;;;;3.17;0.60;;;19.30;98.80;;;;;;7278434;19;2004546;-80
2023/10/20 00:33:23;;;;;;;0.60;0.60;;;19.20;98.90;;;;;;7378752;19;19921;-81
2023/10/20 00:35:57;;;;;;;2.15;0.75;;;19.10;99.20;;;;;;7382121;19;20042;-82
2023/10/20 00:39:21;;;;;;;;;;;;;;;;;;;;;
2023/10/20 00:41:52;;;;;;;1.20;0.68;;;19.10;99.30;;;;;;7275103;19;2020550;-82
2023/10/20 00:44:27;;;;;;;4.35;0.60;;;19.20;99.30;;;;;;7398886;19;20038;-82
2023/10/20 00:47:03;;;;;;;0.80;0.60;;;19.20;99.40;;;;;;7378792;19;20011;-82
2023/10/20 00:49:46;;;;;;;0.70;0.70;;;19.30;99.50;;;;;;7379014;19;20378;-81
2023/10/20 00:52:28;;;;;;;6.07;0.60;;;19.30;99.40;;;;;;7377834;19;20011;-82
2023/10/20 00:55:00;;;;;;;7.07;0.70;;;19.30;99.30;;;;;;7377297;19;20004;-82
2023/10/20 00:57:32;;;;;;;3.15;0.95;;;19.30;99.20;;;;;;7378465;19;20140;-82
2023/10/20 01:00:13;;;;;;;2.47;0.80;;;19.20;99.10;;;;;;7376391;19;20045;-82
2023/10/20 01:02:58;;;;;;;4.18;0.52;;;19.20;99.10;;;;;;7381391;19;20027;-82
2023/10/20 01:06:08;;;;;;;1.85;0.82;;;19.20;99.20;;;;;;7403465;19;20011;-82
2023/10/20 01:09:09;;;;;;;6.35;1.08;;;19.10;99.30;;;;;;7279734;19;2005908;-82
2023/10/20 01:12:14;;;;;;;1.10;0.73;;;19.00;99.60;;;;;;7381860;19;20014;-83
2023/10/20 01:18:15;;;;;;;5.47;0.65;;;18.90;99.60;;;;;;7377638;19;19999;-82
2023/10/20 01:21:17;;;;;;;2.45;0.70;;;18.80;99.40;;;;;;7376769;19;20098;-82
2023/10/20 01:40:17;;;;;;;0.90;0.50;;;18.70;99.10;;;;;;7437173;19;20341;-79
2023/10/20 01:42:50;;;;;;;3.70;0.43;;;18.90;99.00;;;;;;7437964;19;20033;-80
2023/10/20 01:45:22;;;;;;;2.97;0.52;;;19.00;98.80;;;;;;7435362;19;20483;-79
2023/10/20 01:47:54;;;;;;;3.40;0.50;;;18.90;98.70;;;;;;7419205;19;20018;-80
2023/10/20 01:50:23;;;;;;;;;;;18.90;98.50;;;;;;7436320;19;20102;-80
2023/10/20 01:52:52;;;;;;;1.13;0.25;;;18.90;98.70;;;;;;7413549;19;19907;-80
2023/10/20 01:55:23;;;;;;;1.70;0.30;;;18.90;98.60;;;;;;7413626;19;20486;-79
2023/10/20 01:57:51;;;;;;;;;;;18.90;98.60;;;;;;7418057;19;20029;-80
2023/10/20 02:00:22;;;;;;;1.48;0.30;;;18.90;98.80;;;;;;7414872;19;20218;-80
2023/10/20 02:02:51;;;;;;;4.60;0.45;;;18.90;98.80;;;;;;7413358;19;20019;-80
2023/10/20 02:05:19;;;;;;;6.75;0.70;;;18.90;98.80;;;;;;7436657;19;20006;-80
2023/10/20 02:07:48;;;;;;;2.78;0.40;;;18.90;98.80;;;;;;7413288;19;20014;-79
2023/10/20 02:10:17;;;;;;;4.82;0.50;;;18.90;98.90;;;;;;7412576;19;20042;-80
2023/10/20 02:12:49;;;;;;;1.77;0.30;;;18.90;98.90;;;;;;7413829;19;20015;-80
2023/10/20 02:15:17;;;;;;;;;;;18.90;98.90;;;;;;7412717;19;20003;-80
2023/10/20 02:17:46;;;;;;;4.05;0.40;;;18.90;99.00;;;;;;7414535;19;19913;-80
2023/10/20 02:20:20;;;;;;;2.92;0.60;;;18.90;98.90;;;;;;7435440;19;20074;-79
2023/10/20 02:22:52;;;;;;;1.08;0.82;;;18.90;98.90;;;;;;7412429;19;20003;-79
2023/10/20 02:25:22;;;;;;;0.73;0.40;;;18.90;98.80;;;;;;7413072;19;20026;-80
2023/10/20 02:27:53;;;;;;;2.30;0.63;;;18.90;98.80;;;;;;7413435;19;20238;-79
2023/10/20 02:30:30;;;;;;;;;;;18.90;99.20;;;;;;7413991;19;20029;-81
2023/10/20 02:32:59;;;;;;;2.22;0.68;;;18.90;98.80;;;;;;7413831;19;20261;-80
2023/10/20 02:35:27;;;;;;;2.78;0.60;;;18.90;98.80;;;;;;7435638;19;20003;-80
2023/10/20 02:45:13;;;;;;;2.83;0.75;;;18.80;98.60;;;;;;7382702;19;20010;-82
2023/10/20 02:48:00;;;;;;;6.35;0.77;;;18.80;98.70;;;;;;7403532;19;20074;-82
2023/10/20 02:53:39;;;;;;;;;;;;;;;;;;;;;
2023/10/20 02:56:28;;;;;;;2.55;0.60;;;18.80;98.80;;;;;;7382672;19;20967;-80
2023/10/20 02:59:07;;;;;;;7.43;0.65;;;18.80;98.80;;;;;;7385851;19;19999;-81
2023/10/20 03:01:36;;;;;;;1.20;0.50;;;18.80;98.70;;;;;;7384076;19;20018;-80
2023/10/20 03:04:08;;;;;;;1.85;0.57;;;18.80;98.90;;;;;;7382354;19;20006;-81
2023/10/20 03:06:36;;;;;;;0.95;0.40;;;18.80;98.90;;;;;;7381920;19;20003;-81
2023/10/20 03:09:06;;;;;;;1.42;0.43;;;18.80;98.90;;;;;;7381124;19;20002;-81
2023/10/20 03:11:35;;;;;;;1.13;0.60;;;18.80;99.00;;;;;;7384413;19;20006;-80
2023/10/20 03:14:06;;;;;;;2.83;0.90;;;18.80;99.00;;;;;;7404619;19;20030;-80
2023/10/20 03:16:42;;;;;;;3.80;0.80;;;18.80;99.00;;;;;;7382157;19;20034;-80
2023/10/20 03:19:14;;;;;;;4.55;0.60;;;18.80;99.00;;;;;;7381429;19;20003;-80
2023/10/20 03:21:43;;;;;;;3.55;0.57;;;18.80;98.90;;;;;;7382207;19;19998;-80
2023/10/20 03:24:14;;;;;;;1.27;0.50;;;18.80;98.80;;;;;;7380274;19;20007;-80
2023/10/20 03:26:43;;;;;;;7.53;1.25;;;18.70;98.80;;;;;;7380587;19;20030;-81
2023/10/20 03:29:15;;;;;;;2.97;0.65;;;18.70;98.80;;;;;;7402045;19;20011;-82
2023/10/20 03:31:46;;;;;;;3.80;0.98;;;18.70;98.70;;;;;;7383030;19;20006;-81
2023/10/20 03:34:17;;;;;;;4.03;0.65;;;18.60;98.80;;;;;;7387203;19;20007;-80
2023/10/20 03:36:47;;;;;;;;;;;18.70;98.90;;;;;;7384988;19;20018;-82
2023/10/20 03:39:20;;;;;;;0.63;0.60;;;18.70;99.00;;;;;;7382776;19;19907;-81
2023/10/20 03:41:49;;;;;;;2.15;0.60;;;18.60;98.80;;;;;;7384429;19;20350;-81
2023/10/20 03:44:20;;;;;;;4.78;0.77;;;18.70;98.80;;;;;;7403510;19;20013;-81
2023/10/20 03:46:50;;;;;;;;;;;18.70;98.90;;;;;;7382366;19;20033;-81
2023/10/20 03:49:24;;;;;;;4.93;0.70;;;18.70;98.90;;;;;;7381811;19;19914;-81
2023/10/20 03:51:53;;;;;;;0.52;0.40;;;18.70;98.80;;;;;;7382137;19;20082;-81
2023/10/20 03:54:24;;;;;;;4.78;0.90;;;18.70;98.80;;;;;;7384659;19;20426;-81
2023/10/20 03:56:53;;;;;;;2.17;0.70;;;18.70;98.70;;;;;;7388693;19;20049;-81
2023/10/20 03:59:22;;;;;;;2.60;0.65;;;18.70;98.70;;;;;;7416669;19;20408;-79
2023/10/20 04:01:51;;;;;;;2.20;0.73;;;18.60;98.70;;;;;;7405505;19;20006;-79
2023/10/20 04:04:33;;;;;;;6.20;0.70;;;18.60;98.70;;;;;;7404940;19;20003;-79
2023/10/20 04:07:11;;;;;;;1.98;0.70;;;18.60;98.70;;;;;;7404275;19;20026;-81
2023/10/20 04:09:54;;;;;;;3.35;0.73;;;18.70;98.70;;;;;;7384794;19;20086;-81
2023/10/20 04:12:27;;;;;;;1.15;0.85;;;18.60;98.80;;;;;;7383484;19;20499;-81
2023/10/20 04:15:00;;;;;;;0.75;0.70;;;18.70;98.70;;;;;;7382674;19;20007;-81
2023/10/20 04:17:40;;;;;;;1.90;0.93;;;18.70;98.60;;;;;;7403229;19;20046;-81
2023/10/20 04:20:17;;;;;;;2.13;1.00;;;18.70;98.60;;;;;;7382929;19;20020;-80
2023/10/20 04:22:49;;;;;;;0.70;0.70;;;18.60;98.60;;;;;;7381129;19;20002;-80
2023/10/20 04:25:19;;;;;;;2.05;0.70;;;18.60;98.70;;;;;;7380961;19;20006;-80
2023/10/20 04:27:51;;;;;;;6.30;0.80;;;18.60;98.70;;;;;;7382404;19;20006;-79
2023/10/20 04:51:17;;;;;;;1.55;1.38;;;18.50;98.60;;;;;;7376230;19;20086;-80
2023/10/20 04:53:54;;;;;;;3.35;1.65;;;18.50;98.70;;;;;;7376783;19;20018;-81
2023/10/20 04:56:38;;;;;;;6.88;2.47;;;18.60;98.80;;;;;;7401249;19;20027;-81
2023/10/20 04:59:10;;;;;;;3.80;2.00;;;18.50;98.80;;;;;;7378662;19;20011;-81
2023/10/20 05:01:47;;;;;;;5.45;2.10;;;18.50;98.90;;;;;;7377724;19;20042;-81
2023/10/20 05:04:22;;;;;;;3.53;2.10;;;18.60;99.00;;;;;;7377322;19;20010;-81
2023/10/20 05:06:58;;;;;;;3.17;2.20;;;18.60;99.00;;;;;;7377101;19;20003;-80
2023/10/20 05:09:44;;;;;;;3.17;2.35;;;18.70;99.00;;;;;;7376631;19;20002;-80
2023/10/20 05:12:15;;;;;;;3.17;1.98;;;18.60;98.80;;;;;;7376023;19;20022;-81
2023/10/20 05:14:44;;;;;;;;;;;18.60;98.70;;;;;;7377409;19;20221;-81
2023/10/20 05:17:15;;;;;;;7.25;2.20;;;18.60;98.80;;;;;;7397344;19;19910;-81
2023/10/20 05:19:43;;;;;;;3.88;1.77;;;18.60;98.90;;;;;;7377050;19;20014;-79
2023/10/20 05:22:12;;;;;;;1.60;1.50;;;18.60;99.00;;;;;;7377335;19;20007;-80
2023/10/20 05:24:41;;;;;;;2.58;1.60;;;18.60;99.00;;;;;;7377692;19;20044;-81
2023/10/20 05:27:12;;;;;;;2.45;1.60;;;18.60;98.80;;;;;;7381623;19;20029;-80
2023/10/20 05:30:07;;;;;;;6.78;1.48;;;18.50;98.70;;;;;;7400340;19;20015;-82
2023/10/20 05:32:43;;;;;;;3.15;1.30;;;18.50;98.70;;;;;;7278759;19;2004458;-80
2023/10/20 05:35:13;;;;;;;5.90;1.98;;;18.60;98.70;;;;;;7407536;19;20003;-81
2023/10/20 05:37:45;;;;;;;5.30;1.40;;;18.60;98.70;;;;;;7383581;19;20013;-80
2023/10/20 05:40:24;;;;;;;4.20;1.63;;;18.60;98.80;;;;;;7380339;19;20532;-81
2023/10/20 05:43:01;;;;;;;6.70;1.70;;;18.60;98.70;;;;;;7380435;19;20237;-80
2023/10/20 06:01:58;;;;;;;2.22;1.95;;;18.60;98.50;;;;;;7412510;19;20344;-79
2023/10/20 06:04:30;;;;;;;3.03;2.00;;;18.40;98.60;;;;;;7415787;19;20090;-82
2023/10/20 06:06:59;;;;;;;7.30;2.47;;;18.40;98.60;;;;;;7415490;19;20676;-81
2023/10/20 06:09:28;;;;;;;5.35;2.00;;;18.50;98.70;;;;;;7414993;19;20230;-81
2023/10/20 06:11:56;;;;;;;5.10;1.98;;;18.50;98.70;;;;;;7412874;19;20003;-80
2023/10/20 06:14:26;;;;;;;2.00;1.80;;;18.40;98.60;;;;;;7437637;19;20014;-79
2023/10/20 06:16:57;;;;;;;2.58;1.73;;;18.30;98.60;;;;;;7427583;19;20025;-79
2023/10/20 06:19:28;;;;;;;;;;;18.40;98.70;;;;;;7437545;19;20006;-79
2023/10/20 06:21:57;;;;;;;1.77;1.40;;;18.30;98.60;;;;;;7438652;19;19938;-79
2023/10/20 06:24:30;;;;;;;5.00;1.58;;;18.30;98.40;;;;;;7437831;19;20038;-79
2023/10/20 06:27:02;;;;;;;2.40;1.50;;;18.30;98.50;;;;;;7436320;19;20013;-80
2023/10/20 06:29:42;;;;;;;3.33;1.70;;;18.40;98.50;;;;;;7435539;19;20003;-79
2023/10/20 06:32:22;;;;;;;2.08;1.77;;;18.30;98.40;;;;;;7441297;19;20057;-79
2023/10/20 06:34:52;;;;;;;8.15;1.70;;;18.30;98.40;;;;;;7418154;19;20006;-80
2023/10/20 06:37:28;;;;;;;4.68;2.00;;;18.30;98.40;;;;;;7415317;19;20029;-80
2023/10/20 06:39:58;;;;;;;6.80;1.83;;;18.30;98.40;;;;;;7412732;19;20013;-79
2023/10/20 06:42:28;;;;;;;5.60;2.45;;;18.30;98.50;;;;;;7412964;19;20010;-80
2023/10/20 06:44:57;;;;;;;3.63;1.77;;;18.30;98.40;;;;;;7415999;19;20093;-80
2023/10/20 06:47:28;;;;;;;5.68;1.75;;;18.30;98.40;;;;;;7435730;19;20019;-79
2023/10/20 06:49:58;;;;;;;5.30;2.15;;;18.30;98.40;;;;;;7415659;19;20034;-80
2023/10/20 06:52:26;;;;;;;10.68;2.15;;;18.40;98.40;;;;;;7413050;19;20015;-79
2023/10/20 06:54:56;;;;;;;2.67;2.10;;;18.40;98.40;;;;;;7412789;19;20010;-80
2023/10/20 06:57:25;;;;;;;9.98;2.00;;;18.40;98.40;;;;;;7413848;19;20021;-79
2023/10/20 07:00:28;;;;;;;3.05;2.17;;;18.40;98.40;;;;;;7413786;19;20498;-83
2023/10/20 07:06:53;;;;;;;;;;;;;;;;;;;;;
2023/10/20 07:13:11;;;;;;;3.25;2.30;;;18.50;98.60;;;;;;7384436;19;20017;-83
2023/10/20 07:15:54;;;;;;;6.25;2.35;;;18.40;98.20;;;;;;7388994;19;20003;-87
2023/10/20 07:18:23;;;;;;;5.18;2.15;;;18.50;98.30;;;;;;7382406;19;20058;-79
2023/10/20 07:33:44;;;;;;;4.68;3.05;;;18.40;98.10;;;;;;7409839;19;20618;-86
2023/10/20 07:36:15;;;;;;;6.82;3.20;;;18.40;98.10;;;;;;7378171;19;20015;-83
2023/10/20 07:38:44;;;;;;;6.32;2.88;;;18.40;98.20;;;;;;7379279;19;20098;-80
2023/10/20 07:41:41;;;;;;;6.00;2.63;;;18.40;98.20;;;;;;7402314;19;20014;-82
2023/10/20 07:50:20;;;;;;;3.90;2.00;;;18.40;97.70;;;;;;7402652;19;20362;-81
2023/10/20 07:52:51;;;;;;;3.47;1.88;;;18.30;97.50;;;;;;7382979;19;20010;-81
2023/10/20 08:32:52;;;;;;;10.43;2.75;;;18.30;97.60;;;;;;7315736;19;20017;-81
2023/10/20 08:35:22;;;;;;;6.90;3.00;;;18.30;97.60;;;;;;7405223;19;20380;-79
2023/10/20 09:03:08;;;;;;;6.30;2.90;;;18.40;97.00;;;;;;7400200;19;20463;-81
2023/10/20 09:06:12;;;;;;;17.08;7.40;;;18.30;97.10;;;;;;7383936;19;20103;-81
2023/10/20 09:11:56;;;;;;;6.87;2.63;;;18.40;97.40;;;;;;7409861;19;19990;-85
2023/10/20 09:14:28;;;;;;;20.20;7.55;;;18.30;97.10;;;;;;7401253;19;20522;-76
2023/10/20 09:17:01;;;;;;;;;;;18.20;97.30;;;;;;7381466;19;20014;-76
2023/10/20 09:19:30;;;;;;;3.80;2.25;;;18.30;97.50;;;;;;7376078;19;20232;-75
2023/10/20 09:21:58;;;;;;;8.35;2.80;;;18.40;97.30;;;;;;7376849;19;20015;-77
2023/10/20 09:24:34;;;;;;;9.90;2.80;;;18.50;97.20;;;;;;7376791;19;20009;-77
2023/10/20 09:40:19;;;;;;;9.93;2.90;;;18.80;97.10;;;;;;7410689;19;20256;-85
2023/10/20 09:43:06;;;;;;;10.27;5.55;;;18.90;97.00;;;;;;7382033;19;20117;-79
2023/10/20 09:48:44;;;;;;;20.90;10.27;;;18.90;96.80;;;;;;7384219;19;20014;-82
2023/10/20 10:06:32;;;;;;;13.63;3.70;;;18.80;97.30;;;;;;7336086;19;20018;-82
2023/10/20 10:09:03;;;;;;;18.63;3.90;;;18.80;97.40;;;;;;7274281;19;2004313;-78
2023/10/20 10:11:34;;;;;;;13.10;4.35;;;18.90;97.50;;;;;;7374295;19;20054;-76
2023/10/20 10:14:04;;;;;;;15.07;4.97;;;18.90;97.60;;;;;;7394411;19;20031;-73
2023/10/20 10:16:33;;;;;;;22.92;4.30;;;18.90;97.60;;;;;;7372039;19;20007;-74
2023/10/20 10:19:12;;;;;;;15.18;3.78;;;18.70;97.40;;;;;;7371927;19;20011;-72
2023/10/20 10:21:43;;;;;;;25.80;4.72;;;18.70;97.80;;;;;;7371281;19;20071;-73
2023/10/20 10:24:17;;;;;;;17.45;4.03;;;18.80;97.90;;;;;;7372517;19;20010;-73
2023/10/20 10:26:52;;;;;;;18.85;4.30;;;18.90;98.50;;;;;;7370465;19;20014;-74
2023/10/20 10:29:22;;;;;;;16.27;3.83;;;18.90;98.10;;;;;;7392882;19;20418;-73
2023/10/20 10:31:51;;;;;;;18.00;4.07;;;19.00;98.20;;;;;;7369841;19;20006;-73
2023/10/20 10:34:21;;;;;;;27.65;4.00;;;19.10;98.10;;;;;;7371588;19;20380;-73
2023/10/20 10:36:55;;;;;;;17.97;4.47;;;19.20;98.30;;;;;;7374470;19;20002;-72
2023/10/20 10:39:27;;;;;;;17.35;3.47;;;19.20;97.70;;;;;;7379295;19;20212;-73
2023/10/20 10:42:03;;;;;;;21.27;3.65;;;19.00;97.10;;;;;;7379606;19;20409;-73
2023/10/20 10:44:36;;;;;;;21.80;3.72;;;18.90;97.10;;;;;;7384693;19;20010;-73
2023/10/20 10:47:06;;;;;;;49.08;21.25;;;19.00;97.20;;;;;;7402797;19;20010;-74
2023/10/20 10:49:35;;;;;;;23.33;9.93;;;19.10;97.30;;;;;;7380916;19;20377;-74
2023/10/20 10:52:07;;;;;;;14.18;4.10;;;19.20;97.70;;;;;;7380519;19;19999;-74
2023/10/20 10:54:36;;;;;;;14.63;3.42;;;19.30;97.40;;;;;;7380280;19;20225;-74
2023/10/20 10:57:05;;;;;;;19.55;3.60;;;19.40;97.30;;;;;;7381040;19;20284;-74
2023/10/20 10:59:35;;;;;;;11.75;3.28;;;19.30;96.60;;;;;;7381103;19;20006;-74
2023/10/20 11:02:05;;;;;;;16.30;3.50;;;19.30;96.70;;;;;;7402329;19;20552;-74
2023/10/20 11:04:33;;;;;;;20.65;3.50;;;19.40;96.70;;;;;;7383416;19;20010;-74
2023/10/20 11:07:02;;;;;;;14.25;3.63;;;19.50;96.60;;;;;;7382001;19;20007;-74
2023/10/20 11:09:35;;;;;;;14.18;3.95;;;19.50;96.80;;;;;;7381460;19;20025;-74
2023/10/20 11:12:04;;;;;;;17.55;3.00;;;19.60;97.20;;;;;;7379784;19;20015;-74
2023/10/20 11:14:34;;;;;;;20.73;3.47;;;19.60;96.30;;;;;;7380582;19;20083;-73
2023/10/20 11:17:05;;;;;;;16.55;3.58;;;19.70;96.20;;;;;;7402395;19;20015;-74
2023/10/20 11:19:33;;;;;;;10.93;3.10;;;19.60;96.00;;;;;;7379248;19;19999;-73
2023/10/20 11:22:02;;;;;;;13.75;3.47;;;19.70;96.10;;;;;;7379933;19;20023;-73
2023/10/20 11:24:35;;;;;;;12.68;3.30;;;19.80;96.00;;;;;;7380527;19;20002;-73
2023/10/20 11:27:05;;;;;;;15.25;3.30;;;19.70;95.80;;;;;;7379773;19;20003;-73
2023/10/20 11:29:35;;;;;;;14.10;3.40;;;19.70;95.90;;;;;;7379168;19;20357;-74
2023/10/20 11:32:08;;;;;;;15.90;3.15;;;19.70;96.10;;;;;;7399088;19;20018;-74
2023/10/20 11:34:37;;;;;;;13.73;5.53;;;19.80;96.40;;;;;;7379255;19;20003;-74
2023/10/20 11:37:07;;;;;;;18.40;3.95;;;19.90;96.70;;;;;;7379268;19;20007;-73
2023/10/20 11:39:39;;;;;;;11.77;4.40;;;20.00;96.30;;;;;;7379112;19;20011;-73
2023/10/20 11:42:07;;;;;;;;;;;20.00;95.20;;;;;;7380376;19;20019;-74
2023/10/20 11:44:36;;;;;;;9.50;2.95;;;20.10;95.40;;;;;;7379513;19;19907;-74
2023/10/20 11:47:05;;;;;;;12.93;3.45;;;20.10;94.90;;;;;;7400161;19;20075;-74
2023/10/20 11:49:33;;;;;;;12.77;2.72;;;20.10;95.20;;;;;;7378084;19;20020;-74
2023/10/20 11:52:02;;;;;;;16.10;2.88;;;20.20;95.50;;;;;;7378822;19;20093;-75
2023/10/20 11:54:31;;;;;;;9.43;2.60;;;20.20;95.30;;;;;;7378722;19;20699;-74
2023/10/20 11:57:02;;;;;;;12.35;2.40;;;20.40;94.30;;;;;;7378845;19;20353;-73
2023/10/20 11:59:33;;;;;;;17.73;2.67;;;20.30;94.20;;;;;;7392933;19;20345;-73
2023/10/20 12:02:01;;;;;;;10.95;3.05;;;20.10;94.10;;;;;;7401100;19;20024;-74
2023/10/20 12:04:31;;;;;;;11.27;2.95;;;20.10;94.40;;;;;;7377721;19;20269;-73
2023/10/20 12:07:03;;;;;;;8.18;2.45;;;20.10;94.40;;;;;;7378812;19;20006;-73
2023/10/20 12:09:33;;;;;;;9.50;2.97;;;20.10;94.70;;;;;;7378767;19;20023;-73
2023/10/20 12:12:04;;;;;;;9.43;2.58;;;20.10;94.90;;;;;;7377315;19;20037;-73
2023/10/20 12:14:33;;;;;;;12.48;2.33;;;20.10;94.80;;;;;;7378762;19;20007;-74
2023/10/20 12:17:03;;;;;;;17.67;2.50;;;20.10;95.10;;;;;;7399614;19;20017;-74
2023/10/20 12:19:31;;;;;;;9.80;2.47;;;20.20;95.30;;;;;;7377749;19;20021;-73
2023/10/20 12:22:00;;;;;;;11.98;2.00;;;20.30;94.40;;;;;;7377912;19;20747;-73
2023/10/20 12:24:29;;;;;;;11.98;1.92;;;20.30;94.20;;;;;;7378332;19;20261;-74
2023/10/20 12:26:59;;;;;;;14.32;2.17;;;20.50;94.30;;;;;;7378883;19;20079;-75
2023/10/20 12:29:30;;;;;;;10.60;1.92;;;20.60;93.70;;;;;;7403650;19;20078;-74
2023/10/20 12:31:59;;;;;;;;;;;20.60;93.70;;;;;;7376903;19;20058;-74
2023/10/20 12:34:28;;;;;;;9.10;2.35;;;20.60;93.40;;;;;;7377617;19;19911;-73
2023/10/20 12:36:57;;;;;;;10.85;1.95;;;20.40;93.20;;;;;;7377728;19;20009;-73
2023/10/20 12:39:28;;;;;;;11.02;2.20;;;20.50;93.50;;;;;;7376659;19;20055;-73
2023/10/20 12:42:02;;;;;;;11.07;2.28;;;20.40;93.50;;;;;;7377799;19;20553;-74
2023/10/20 12:44:35;;;;;;;12.13;2.00;;;20.40;93.50;;;;;;7393165;19;20007;-73
2023/10/20 12:47:05;;;;;;;7.45;2.17;;;20.40;93.50;;;;;;7399137;19;20019;-72
2023/10/20 12:49:34;;;;;;;8.40;2.30;;;20.40;93.70;;;;;;7376721;19;20006;-74
2023/10/20 12:52:04;;;;;;;7.22;1.92;;;20.30;93.70;;;;;;7375873;19;20062;-73
2023/10/20 12:54:33;;;;;;;10.05;1.80;;;20.30;93.80;;;;;;7377196;19;20003;-74
2023/10/20 12:57:01;;;;;;;6.90;2.03;;;20.40;93.80;;;;;;7379346;19;20059;-74
2023/10/20 12:59:33;;;;;;;13.63;2.42;;;20.40;93.80;;;;;;7396737;19;20011;-74
2023/10/20 13:02:04;;;;;;;9.57;2.05;;;20.50;93.60;;;;;;7376653;19;20488;-74
2023/10/20 13:04:33;;;;;;;14.73;1.90;;;20.40;93.40;;;;;;7375329;19;20002;-75
2023/10/20 13:07:02;;;;;;;13.77;2.00;;;20.40;93.50;;;;;;7376901;19;20002;-74
2023/10/20 13:09:31;;;;;;;16.63;2.00;;;20.10;93.70;;;;;;7376514;19;20006;-74
2023/10/20 13:12:00;;;;;;;10.93;1.83;;;20.20;93.90;;;;;;7376706;19;19999;-74
2023/10/20 13:14:29;;;;;;;20.08;2.67;;;20.20;94.10;;;;;;7398222;19;20010;-74
2023/10/20 13:17:00;;;;;;;7.95;1.80;;;20.30;94.20;;;;;;7375918;19;20406;-74
2023/10/20 13:19:29;;;;;;;;;;;20.30;94.70;;;;;;7376403;19;20022;-74
2023/10/20 13:21:58;;;;;;;8.18;1.40;;;20.50;94.90;;;;;;7376935;19;19907;-74
2023/10/20 13:24:27;;;;;;;8.73;1.90;;;20.50;94.20;;;;;;7379619;19;20079;-75
2023/10/20 13:26:55;;;;;;;6.22;1.40;;;20.60;93.90;;;;;;7380616;19;20027;-75
2023/10/20 13:29:24;;;;;;;8.43;1.80;;;20.70;93.60;;;;;;7403138;19;20011;-75
2023/10/20 13:31:53;;;;;;;11.93;1.45;;;20.80;93.50;;;;;;7379444;19;20016;-74
2023/10/20 13:34:24;;;;;;;9.07;1.23;;;20.80;93.50;;;;;;7379824;19;20011;-74
2023/10/20 13:36:53;;;;;;;6.63;1.60;;;20.90;93.50;;;;;;7377015;19;20011;-74
2023/10/20 13:39:22;;;;;;;5.15;1.30;;;21.10;93.20;;;;;;7375956;19;20032;-74
2023/10/20 13:41:51;;;;;;;9.20;1.75;;;21.30;93.00;;;;;;7376353;19;20386;-74
2023/10/20 13:44:20;;;;;;;9.13;1.65;;;21.50;92.80;;;;;;7399011;19;20015;-74
2023/10/20 13:46:51;;;;;;;10.82;1.30;;;21.50;91.60;;;;;;7375478;19;20401;-76
2023/10/20 13:49:19;;;;;;;10.38;1.52;;;21.60;91.80;;;;;;7376563;19;20253;-74
2023/10/20 13:51:51;;;;;;;10.15;1.60;;;21.80;91.80;;;;;;7375538;19;20467;-74
2023/10/20 13:54:19;;;;;;;;;;;22.00;91.70;;;;;;7376336;19;20086;-74
2023/10/20 13:56:48;;;;;;;7.45;1.45;;;22.00;90.90;;;;;;7375239;19;19958;-73
2023/10/20 13:59:17;;;;;;;8.75;1.38;;;22.10;90.40;;;;;;7396861;19;20089;-74
2023/10/20 14:01:46;;;;;;;4.13;1.10;;;22.10;89.90;;;;;;7374514;19;20003;-73
2023/10/20 14:04:14;;;;;;;5.80;1.55;;;22.10;90.20;;;;;;7374878;19;20003;-74
2023/10/20 14:06:43;;;;;;;8.98;1.55;;;22.00;90.00;;;;;;7374991;19;20002;-74
2023/10/20 14:09:17;;;;;;;10.45;1.30;;;22.00;90.00;;;;;;7375184;19;20006;-73
2023/10/20 14:11:46;;;;;;;7.43;1.48;;;22.00;90.10;;;;;;7377165;19;20024;-74
2023/10/20 14:14:15;;;;;;;13.65;1.70;;;22.00;90.50;;;;;;7403936;19;20018;-74
2023/10/20 14:16:44;;;;;;;7.93;1.88;;;22.00;90.60;;;;;;7381750;19;20003;-74
2023/10/20 14:19:14;;;;;;;3.92;1.23;;;22.00;90.50;;;;;;7381773;19;20037;-74
2023/10/20 14:21:43;;;;;;;9.57;1.65;;;22.00;90.10;;;;;;7382250;19;20482;-74
2023/10/20 14:24:16;;;;;;;7.38;1.60;;;22.00;90.40;;;;;;7382568;19;20014;-74
2023/10/20 14:26:45;;;;;;;5.03;1.25;;;21.90;90.50;;;;;;7383164;19;20010;-74
2023/10/20 14:29:15;;;;;;;15.18;1.77;;;21.90;90.40;;;;;;7403717;19;20058;-74
2023/10/20 14:31:44;;;;;;;6.43;1.85;;;21.80;90.50;;;;;;7380802;19;20009;-74
2023/10/20 14:34:13;;;;;;;9.50;1.55;;;21.70;90.70;;;;;;7381519;19;20067;-74
2023/10/20 14:36:42;;;;;;;7.97;1.60;;;21.60;91.00;;;;;;7382590;19;20003;-74
2023/10/20 14:39:11;;;;;;;4.35;1.48;;;21.50;91.00;;;;;;7382290;19;20013;-73
2023/10/20 14:41:42;;;;;;;7.15;1.65;;;21.50;91.10;;;;;;7381872;19;20002;-73
2023/10/20 14:44:11;;;;;;;7.80;1.50;;;21.40;91.40;;;;;;7403455;19;20260;-74
2023/10/20 14:46:40;;;;;;;6.88;1.52;;;21.30;91.60;;;;;;7380972;19;20108;-74
2023/10/20 14:49:09;;;;;;;8.13;1.58;;;21.30;91.90;;;;;;7384272;19;20246;-74
2023/10/20 14:51:40;;;;;;;9.23;1.75;;;21.20;92.10;;;;;;7381089;19;20391;-74
2023/10/20 14:54:08;;;;;;;7.95;1.40;;;21.20;92.60;;;;;;7381561;19;20022;-73
2023/10/20 14:56:37;;;;;;;10.57;1.17;;;21.20;92.90;;;;;;7378946;19;20277;-74
2023/10/20 14:59:09;;;;;;;3.85;1.40;;;21.10;93.00;;;;;;7402272;19;20010;-73
2023/10/20 15:01:37;;;;;;;;;;;21.10;93.10;;;;;;7381777;19;20090;-74
2023/10/20 15:04:06;;;;;;;5.82;1.40;;;21.20;93.40;;;;;;7381270;19;19911;-74
2023/10/20 15:06:35;;;;;;;8.73;1.40;;;21.30;93.40;;;;;;7379679;19;20007;-74
2023/10/20 15:09:04;;;;;;;6.18;1.55;;;21.30;93.40;;;;;;7381418;19;20006;-74
2023/10/20 15:11:34;;;;;;;8.57;1.40;;;21.30;93.10;;;;;;7380667;19;20007;-73
2023/10/20 15:14:03;;;;;;;13.98;1.88;;;21.40;92.70;;;;;;7401700;19;20098;-74
2023/10/20 15:16:34;;;;;;;9.55;1.50;;;21.40;92.60;;;;;;7380357;19;20016;-74
2023/10/20 15:19:03;;;;;;;4.20;1.30;;;21.30;92.50;;;;;;7380580;19;20023;-74
2023/10/20 15:21:32;;;;;;;4.90;1.30;;;21.30;92.40;;;;;;7380908;19;20015;-74
2023/10/20 15:24:02;;;;;;;6.47;2.08;;;21.20;92.60;;;;;;7377654;19;20680;-74
2023/10/20 15:26:31;;;;;;;9.13;1.77;;;21.10;92.90;;;;;;7395021;19;20010;-74
2023/10/20 15:28:59;;;;;;;8.60;2.05;;;21.00;93.20;;;;;;7401466;19;20082;-75
2023/10/20 15:31:28;;;;;;;8.30;1.83;;;21.00;93.60;;;;;;7379449;19;20067;-74
2023/10/20 15:33:59;;;;;;;6.93;1.52;;;20.90;94.20;;;;;;7379727;19;20006;-74
2023/10/20 15:36:28;;;;;;;;;;;20.90;94.60;;;;;;7381019;19;20382;-74
2023/10/20 15:38:57;;;;;;;5.85;1.30;;;20.90;94.90;;;;;;7380033;19;19921;-74
2023/10/20 15:41:26;;;;;;;10.32;1.73;;;20.80;95.20;;;;;;7403685;19;20010;-76
2023/10/20 15:43:57;;;;;;;5.30;1.50;;;20.80;95.30;;;;;;7386751;19;20059;-75
2023/10/20 15:46:27;;;;;;;13.35;2.15;;;20.70;95.50;;;;;;7383246;19;20019;-75
2023/10/20 15:48:59;;;;;;;6.25;1.75;;;20.70;95.70;;;;;;7383867;19;20034;-74
2023/10/20 15:51:27;;;;;;;7.40;1.42;;;20.70;95.80;;;;;;7383756;19;20342;-74
2023/10/20 15:53:56;;;;;;;10.88;2.03;;;20.60;95.80;;;;;;7380150;19;20014;-74
2023/10/20 15:56:25;;;;;;;8.13;1.80;;;20.60;95.80;;;;;;7401450;19;20082;-74
2023/10/20 15:58:53;;;;;;;8.43;1.80;;;20.50;96.10;;;;;;7378123;19;20460;-74
2023/10/20 16:01:25;;;;;;;12.98;1.80;;;20.50;95.90;;;;;;7378848;19;20288;-74
2023/10/20 16:03:53;;;;;;;5.15;2.13;;;20.50;96.00;;;;;;7379517;19;20026;-74
2023/10/20 16:06:25;;;;;;;5.70;1.90;;;20.50;96.10;;;;;;7377462;19;20055;-74
2023/10/20 16:08:55;;;;;;;8.32;2.28;;;20.50;96.20;;;;;;7377740;19;20010;-74
2023/10/20 16:11:23;;;;;;;11.45;2.03;;;20.50;96.30;;;;;;7400404;19;20013;-74
2023/10/20 16:13:52;;;;;;;10.40;2.20;;;20.50;96.50;;;;;;7376212;19;20003;-74
2023/10/20 16:16:23;;;;;;;7.07;1.90;;;20.40;96.60;;;;;;7378178;19;20301;-74
2023/10/20 16:18:52;;;;;;;7.60;2.08;;;20.40;96.70;;;;;;7379046;19;20046;-74
2023/10/20 16:21:20;;;;;;;6.63;1.83;;;20.30;96.80;;;;;;7379685;19;20003;-74
2023/10/20 16:23:52;;;;;;;11.30;2.15;;;20.30;96.90;;;;;;7379001;19;20023;-74
2023/10/20 16:26:20;;;;;;;;;;;20.30;97.00;;;;;;7401039;19;20357;-74
2023/10/20 16:28:49;;;;;;;14.18;2.50;;;20.30;97.10;;;;;;7377805;19;19915;-74
2023/10/20 16:31:17;;;;;;;7.43;2.15;;;20.20;97.40;;;;;;7378254;19;20007;-74
2023/10/20 16:33:46;;;;;;;9.32;2.10;;;20.20;97.10;;;;;;7376007;19;20268;-73
2023/10/20 16:36:15;;;;;;;13.10;3.17;;;20.20;97.10;;;;;;7378431;19;20287;-74